createdAt,value
2023-04-27T04:06:25.024Z,0.71
2023-04-27T04:16:04.202Z,1.91
2023-04-27T04:19:07.012Z,2.37
2023-04-27T04:22:09.666Z,3.15
2023-04-27T04:25:12.967Z,4.19
2023-04-27T04:28:15.518Z,5.20
2023-04-27T04:31:19.440Z,5.50
2023-04-27T04:34:22.845Z,5.90
2023-04-27T04:37:25.579Z,6.03
2023-04-27T04:40:28.694Z,6.42
2023-04-27T04:43:31.218Z,6.96
2023-04-27T04:46:35.161Z,7.42
2023-04-27T04:49:37.934Z,7.74
2023-04-27T04:52:40.432Z,7.80
2023-04-27T04:55:42.911Z,8.06
2023-04-27T04:58:45.448Z,8.52
2023-04-27T05:01:49.278Z,8.84
2023-04-27T05:04:52.531Z,8.76
2023-04-27T05:07:55.213Z,8.73
2023-04-27T05:10:57.702Z,9.18
2023-04-27T05:14:00.149Z,9.14
2023-04-27T05:17:03.973Z,9.44
2023-04-27T05:20:08.856Z,9.73
2023-04-27T05:23:11.418Z,9.30
2023-04-27T05:26:14.488Z,9.51
2023-04-27T05:29:17.346Z,9.70
2023-04-27T05:32:21.301Z,9.94
2023-04-27T05:35:23.783Z,9.60
2023-04-27T05:38:26.306Z,9.26
2023-04-27T05:41:28.911Z,9.73
2023-04-27T05:44:31.470Z,9.24
2023-04-27T05:47:35.646Z,8.61
2023-04-27T05:50:38.320Z,8.17
2023-04-27T05:53:41.100Z,7.65
2023-04-27T05:56:43.587Z,7.07
2023-04-27T05:59:46.118Z,6.92
2023-04-27T06:02:50.134Z,7.29
2023-04-27T06:05:58.648Z,6.88
2023-04-27T06:09:01.410Z,7.00
2023-04-27T06:12:04.401Z,7.65
2023-04-27T06:15:09.484Z,7.72
2023-04-27T06:18:13.521Z,6.82
2023-04-27T06:21:16.413Z,7.28
2023-04-27T06:24:18.891Z,6.88
2023-04-27T06:27:21.351Z,6.83
2023-04-27T06:30:24.207Z,7.23
2023-04-27T06:33:28.112Z,7.34
2023-04-27T06:36:31.365Z,7.53
2023-04-27T06:39:33.963Z,7.72
2023-04-27T06:42:36.488Z,7.28
2023-04-27T06:45:38.987Z,7.80
2023-04-27T06:48:43.068Z,8.42
2023-04-27T06:51:46.675Z,8.08
2023-04-27T06:54:49.243Z,8.35
2023-04-27T06:57:51.720Z,8.72
2023-04-27T07:00:54.632Z,8.34
2023-04-27T07:03:58.540Z,8.82
2023-04-27T07:07:01.249Z,9.68
2023-04-27T07:10:04.117Z,8.90
2023-04-27T07:13:09.081Z,9.27
2023-04-27T07:16:12.079Z,10.11
2023-04-27T07:19:16.276Z,9.83
2023-04-27T07:22:20.028Z,10.09
2023-04-27T07:25:22.672Z,9.06
2023-04-27T07:28:25.268Z,8.48
2023-04-27T07:31:28.055Z,8.56
2023-04-27T07:34:41.281Z,9.21
2023-04-27T07:37:52.429Z,10.89
2023-04-27T07:40:54.962Z,11.01
2023-04-27T07:43:57.965Z,9.60
2023-04-27T07:47:00.452Z,10.54
2023-04-27T07:50:06.269Z,10.32
2023-04-27T07:53:08.921Z,11.53
2023-04-27T07:56:11.525Z,10.57
2023-04-27T07:59:15.023Z,9.64
2023-04-27T08:02:20.114Z,8.99
2023-04-27T08:05:24.706Z,9.52
2023-04-27T08:08:27.456Z,8.32
2023-04-27T08:11:30.396Z,9.63
2023-04-27T08:14:35.240Z,9.99
2023-04-27T08:17:40.690Z,9.41
2023-04-27T08:20:44.747Z,8.60
2023-04-27T08:23:47.308Z,8.40
2023-04-27T08:26:49.804Z,8.93
2023-04-27T08:29:52.590Z,8.70
2023-04-27T08:32:55.502Z,9.54
2023-04-27T08:35:59.364Z,8.49
2023-04-27T08:39:01.830Z,9.43
2023-04-27T08:42:11.637Z,9.11
2023-04-27T08:45:14.127Z,9.37
2023-04-27T08:48:16.720Z,10.42
2023-04-27T08:51:21.359Z,10.36
2023-04-27T08:54:23.851Z,10.74
2023-04-27T08:57:26.331Z,9.15
2023-04-27T09:00:40.511Z,7.89
2023-04-27T09:03:43.434Z,7.76
2023-04-27T09:06:49.016Z,8.32
2023-04-27T09:09:51.764Z,8.22
2023-04-27T09:12:58.956Z,8.75
2023-04-27T09:16:01.483Z,10.83
2023-04-27T09:19:04.045Z,11.12
2023-04-27T09:22:10.824Z,12.00
2023-04-27T09:25:23.709Z,12.67
2023-04-27T09:28:27.625Z,14.13
2023-04-27T09:31:34.022Z,12.51
2023-04-27T09:34:40.933Z,10.80
2023-04-27T09:37:45.460Z,10.61
2023-04-27T09:40:48.597Z,12.45
2023-04-27T09:43:52.695Z,13.24
2023-04-27T09:46:57.176Z,12.17
2023-04-27T09:50:00.519Z,12.17
2023-04-27T09:53:07.903Z,11.60
2023-04-27T09:56:28.807Z,11.94
2023-04-27T09:59:41.512Z,11.33
2023-04-27T10:02:54.597Z,10.95
2023-04-27T10:06:37.454Z,10.57
2023-04-27T10:09:44.164Z,11.41
2023-04-27T10:12:58.049Z,10.46
2023-04-27T10:16:16.550Z,9.83
2023-04-27T10:19:20.529Z,9.96
2023-04-27T10:25:28.579Z,9.70
2023-04-27T10:28:40.139Z,9.60
2023-04-27T10:31:44.984Z,9.20
2023-04-27T10:34:49.053Z,10.57
2023-04-27T10:37:53.053Z,12.32
2023-04-27T10:40:58.208Z,13.77
2023-04-27T10:44:14.885Z,13.08
2023-04-27T10:47:19.869Z,13.49
2023-04-27T10:50:23.497Z,13.92
2023-04-27T10:53:27.147Z,14.32
2023-04-27T10:56:30.992Z,13.42
2023-04-27T10:59:33.871Z,11.14
2023-04-27T11:02:36.556Z,10.41
2023-04-27T11:05:39.151Z,9.80
2023-04-27T11:08:45.998Z,10.59
2023-04-27T11:11:49.926Z,11.30
2023-04-27T11:14:58.459Z,12.69
2023-04-27T11:18:05.958Z,12.06
2023-04-27T11:21:10.514Z,13.33
2023-04-27T11:24:15.303Z,12.70
2023-04-27T11:27:22.272Z,11.10
2023-04-27T11:30:26.016Z,11.11
2023-04-27T11:33:29.269Z,11.25
2023-04-27T11:36:31.757Z,11.33
2023-04-27T11:39:36.079Z,11.45
2023-04-27T11:42:43.618Z,11.49
2023-04-27T11:45:46.302Z,13.28
2023-04-27T11:48:48.874Z,14.52
2023-04-27T11:51:51.544Z,12.73
2023-04-27T11:54:56.510Z,11.27
2023-04-27T11:58:00.512Z,10.88
2023-04-27T12:01:03.146Z,10.95
2023-04-27T12:04:06.240Z,10.88
2023-04-27T12:07:08.887Z,11.84
2023-04-27T12:10:11.958Z,13.70
2023-04-27T12:13:16.212Z,14.27
2023-04-27T12:16:18.756Z,13.97
2023-04-27T12:19:24.249Z,13.60
2023-04-27T12:22:26.943Z,12.84
2023-04-27T12:25:30.342Z,11.93
2023-04-27T12:28:34.297Z,11.56
2023-04-27T12:31:36.945Z,11.15
2023-04-27T12:34:40.218Z,10.85
2023-04-27T12:37:42.916Z,11.05
2023-04-27T12:40:45.642Z,10.75
2023-04-27T12:43:49.468Z,11.50
2023-04-27T12:46:52.199Z,11.89
2023-04-27T12:49:54.864Z,11.84
2023-04-27T12:52:57.353Z,12.98
2023-04-27T12:56:01.930Z,13.96
2023-04-27T12:59:05.957Z,12.75
2023-04-27T13:02:08.800Z,12.69
2023-04-27T13:05:11.895Z,13.98
2023-04-27T13:08:14.406Z,15.33
2023-04-27T13:11:17.967Z,15.65
2023-04-27T13:14:22.060Z,14.37
2023-04-27T13:17:24.661Z,12.95
2023-04-27T13:20:27.233Z,12.68
2023-04-27T13:23:30.008Z,11.92
2023-04-27T13:26:32.532Z,11.87
2023-04-27T13:29:36.337Z,11.49
2023-04-27T13:32:38.929Z,11.21
2023-04-27T13:35:41.548Z,10.59
2023-04-27T13:38:44.030Z,10.66
2023-04-27T13:41:46.715Z,10.54
2023-04-27T13:44:50.522Z,10.22
2023-04-27T13:47:53.018Z,10.04
2023-04-27T13:50:55.922Z,10.31
2023-04-27T13:53:58.422Z,10.58
2023-04-27T13:57:00.892Z,10.87
2023-04-27T14:00:08.088Z,10.63
2023-04-27T14:03:10.789Z,10.56
2023-04-27T14:06:13.405Z,10.45
2023-04-27T14:09:16.633Z,10.34
2023-04-27T14:12:20.405Z,10.15
2023-04-27T14:15:24.242Z,9.90
2023-04-27T14:18:32.250Z,9.93
2023-04-27T14:21:35.356Z,10.05
2023-04-27T14:24:37.953Z,9.97
2023-04-27T14:27:40.977Z,10.03
2023-04-27T14:30:44.800Z,10.00
2023-04-27T14:33:47.993Z,9.98
2023-04-27T14:36:50.489Z,10.02
2023-04-27T14:39:52.992Z,10.06
2023-04-27T14:42:55.501Z,10.15
2023-04-27T14:46:08.025Z,10.23
2023-04-27T14:49:21.976Z,10.09
2023-04-27T14:52:24.456Z,10.12
2023-04-27T14:55:27.202Z,10.17
2023-04-27T14:58:32.079Z,10.30
2023-04-27T15:01:36.934Z,10.18
2023-04-27T15:04:40.071Z,10.19
2023-04-27T15:07:42.643Z,10.13
2023-04-27T15:10:45.140Z,10.34
2023-04-27T15:13:47.919Z,10.89
2023-04-27T15:16:52.071Z,12.08
2023-04-27T15:19:55.868Z,12.83
2023-04-27T15:22:58.357Z,13.16
2023-04-27T15:26:00.920Z,13.12
2023-04-27T15:29:03.639Z,12.76
2023-04-27T15:32:07.433Z,13.29
2023-04-27T15:35:12.272Z,13.89
2023-04-27T15:38:17.840Z,13.37
2023-04-27T15:41:20.409Z,13.01
2023-04-27T15:44:22.885Z,11.86
2023-04-27T15:47:26.942Z,11.30
2023-04-27T15:50:29.652Z,10.81
2023-04-27T15:53:32.463Z,10.60
2023-04-27T15:56:34.944Z,10.41
2023-04-27T15:59:37.495Z,10.43
2023-04-27T16:02:41.778Z,10.48
2023-04-27T16:05:44.480Z,10.55
2023-04-27T16:08:47.049Z,10.39
2023-04-27T16:11:49.524Z,10.30
2023-04-27T16:14:57.001Z,10.62
2023-04-27T16:18:01.200Z,10.88
2023-04-27T16:21:04.123Z,10.87
2023-04-27T16:24:06.791Z,11.07
2023-04-27T16:27:09.348Z,11.11
2023-04-27T16:30:12.447Z,10.80
2023-04-27T16:33:16.457Z,10.97
2023-04-27T16:36:19.000Z,11.38
2023-04-27T16:39:21.694Z,11.69
2023-04-27T16:42:24.209Z,11.86
2023-04-27T16:45:26.703Z,11.87
2023-04-27T16:48:30.661Z,11.90
2023-04-27T16:51:33.296Z,11.87
2023-04-27T16:54:36.418Z,11.81
2023-04-27T16:57:38.943Z,11.81
2023-04-27T17:00:41.692Z,11.62
2023-04-27T17:03:45.739Z,11.68
2023-04-27T17:06:48.642Z,11.78
2023-04-27T17:09:51.108Z,11.66
2023-04-27T17:12:53.684Z,11.56
2023-04-27T17:15:56.203Z,11.44
2023-04-27T17:19:00.110Z,11.44
2023-04-27T17:22:02.621Z,11.45
2023-04-27T17:25:05.734Z,11.56
2023-04-27T17:28:09.044Z,11.55
2023-04-27T17:31:11.699Z,11.38
2023-04-27T17:34:15.596Z,11.12
2023-04-27T17:37:18.122Z,10.80
2023-04-27T17:40:21.142Z,10.86
2023-04-27T17:43:23.739Z,10.54
2023-04-27T17:46:26.410Z,10.15
2023-04-27T17:49:30.250Z,9.76
2023-04-27T17:52:32.738Z,9.47
2023-04-27T17:55:35.284Z,9.28
2023-04-27T17:58:37.816Z,9.05
2023-04-27T18:01:40.392Z,8.82
2023-04-27T18:04:44.285Z,8.60
2023-04-27T18:07:47.206Z,8.45
2023-04-27T18:10:49.704Z,8.25
2023-04-27T18:13:52.572Z,8.06
2023-04-27T18:16:55.218Z,7.90
2023-04-27T18:20:08.201Z,7.72
2023-04-27T18:23:12.240Z,7.52
2023-04-27T18:26:14.737Z,7.27
2023-04-27T18:29:17.322Z,7.03
2023-04-27T18:32:19.804Z,6.79
2023-04-27T18:35:23.632Z,6.48
2023-04-27T18:38:26.126Z,6.26
2023-04-27T18:41:28.729Z,6.07
2023-04-27T18:44:31.369Z,5.91
2023-04-27T18:47:33.907Z,5.79
2023-04-27T18:50:37.793Z,5.61
2023-04-27T18:53:40.267Z,5.43
2023-04-27T18:56:42.766Z,5.25
2023-04-27T18:59:45.251Z,5.21
2023-04-27T19:02:48.341Z,5.31
2023-04-27T19:05:52.812Z,5.41
2023-04-27T19:08:55.734Z,5.43
2023-04-27T19:12:02.991Z,5.40
2023-04-27T19:15:06.676Z,5.20
2023-04-27T19:18:11.070Z,4.94
2023-04-27T19:21:15.507Z,4.60
2023-04-27T19:24:18.176Z,4.44
2023-04-27T19:27:20.674Z,4.36
2023-04-27T19:30:23.201Z,4.32
2023-04-27T19:33:25.872Z,4.26
2023-04-27T19:36:29.670Z,4.32
2023-04-27T19:39:34.298Z,4.36
2023-04-27T19:42:37.063Z,4.36
2023-04-27T19:45:41.799Z,4.40
2023-04-27T19:48:44.274Z,4.57
